Time;durP1;ratioP1;P1;durP2;ratioP2;P2;SDS_P1;SDS_P2;PMS_P1;PMS_P2;Temp;Humidity;BMP_temperature;BMP_pressure;BME280_temperature;BME280_humidity;BME280_pressure;Samples;Min_cycle;Max_cycle;Signal;HPM_P1;HPM_P2
2022/09/02 00:00:59;;;;;;;3.50;1.08;;;18.00;97.20;;;;;;4977963;28;20072;-69
2022/09/02 00:03:32;;;;;;;3.95;1.00;;;17.90;97.20;;;;;;4978315;28;20081;-70
2022/09/02 00:05:58;;;;;;;2.67;0.80;;;17.90;97.30;;;;;;4978199;28;20082;-69
2022/09/02 00:08:24;;;;;;;4.10;1.05;;;17.80;97.40;;;;;;4977975;28;20082;-69
2022/09/02 00:10:49;;;;;;;5.00;1.10;;;17.70;97.30;;;;;;4977951;28;20038;-69
2022/09/02 00:13:18;;;;;;;2.95;1.10;;;17.60;97.40;;;;;;4977969;28;20123;-70
2022/09/02 00:15:45;;;;;;;2.50;1.17;;;17.60;97.40;;;;;;4977359;28;20042;-70
2022/09/02 00:18:11;;;;;;;1.77;1.00;;;17.50;97.40;;;;;;4977755;28;20433;-70
2022/09/02 00:20:38;;;;;;;3.45;1.20;;;17.50;97.40;;;;;;4978038;28;20043;-70
2022/09/02 00:23:04;;;;;;;3.63;1.20;;;17.50;97.40;;;;;;4977756;28;20097;-69
2022/09/02 00:25:31;;;;;;;3.20;1.13;;;17.40;97.50;;;;;;4978009;28;20073;-69
2022/09/02 00:27:57;;;;;;;4.05;0.98;;;17.30;97.50;;;;;;4976546;28;20042;-69
2022/09/02 00:30:22;;;;;;;1.73;0.88;;;17.30;97.50;;;;;;4977993;28;20038;-69
2022/09/02 00:32:48;;;;;;;1.60;0.90;;;17.30;97.60;;;;;;4977498;28;20433;-69
2022/09/02 00:35:14;;;;;;;1.63;1.00;;;17.20;97.50;;;;;;4976868;28;20050;-70
2022/09/02 00:37:40;;;;;;;1.58;0.80;;;17.20;97.70;;;;;;4977848;28;20039;-69
2022/09/02 00:40:07;;;;;;;2.65;0.90;;;17.00;97.60;;;;;;4976809;28;20041;-69
2022/09/02 00:42:34;;;;;;;3.03;1.23;;;17.10;97.70;;;;;;4977434;28;20039;-69
2022/09/02 00:45:01;;;;;;;1.77;0.80;;;17.10;97.50;;;;;;4977484;28;20039;-73
2022/09/02 00:47:30;;;;;;;2.47;0.90;;;17.00;97.60;;;;;;4977532;28;20058;-69
2022/09/02 00:49:57;;;;;;;1.60;1.00;;;17.00;97.70;;;;;;4977405;28;20035;-69
2022/09/02 00:52:29;;;;;;;5.93;1.27;;;17.00;97.70;;;;;;4977632;28;20050;-69
2022/09/02 00:55:05;;;;;;;4.03;1.13;;;16.90;97.70;;;;;;4977369;28;20043;-69
2022/09/02 00:57:36;;;;;;;2.28;1.30;;;16.90;97.70;;;;;;4977676;28;20316;-69
2022/09/02 01:00:16;;;;;;;3.50;1.08;;;16.90;97.70;;;;;;4977722;28;20045;-69
2022/09/02 01:02:46;;;;;;;1.42;0.90;;;16.80;97.80;;;;;;4977428;28;20065;-69
2022/09/02 01:05:15;;;;;;;1.30;0.98;;;16.80;97.70;;;;;;4977801;28;20039;-69
2022/09/02 01:07:42;;;;;;;1.98;1.15;;;16.80;97.80;;;;;;4977159;28;20035;-70
2022/09/02 01:10:21;;;;;;;1.98;1.27;;;16.80;97.70;;;;;;4977359;28;20077;-69
2022/09/02 01:12:48;;;;;;;3.13;1.20;;;16.70;97.60;;;;;;4976424;28;20337;-69
2022/09/02 01:15:14;;;;;;;2.08;0.90;;;16.60;97.70;;;;;;4975682;28;20051;-70
2022/09/02 01:17:44;;;;;;;4.70;1.15;;;16.50;97.70;;;;;;4977456;28;20122;-69
2022/09/02 01:20:14;;;;;;;3.03;1.00;;;16.60;97.70;;;;;;4976412;28;20035;-69
2022/09/02 01:22:41;;;;;;;2.97;1.02;;;16.70;97.80;;;;;;4977491;28;20121;-69
2022/09/02 01:25:14;;;;;;;4.43;1.10;;;16.60;97.70;;;;;;4977178;28;20047;-69
2022/09/02 01:27:40;;;;;;;3.35;1.30;;;16.70;97.60;;;;;;4977262;28;20118;-69
2022/09/02 01:30:11;;;;;;;3.50;1.38;;;16.60;97.60;;;;;;4977151;28;20121;-70
2022/09/02 01:32:36;;;;;;;2.50;1.08;;;16.60;97.60;;;;;;4977006;28;20043;-70
2022/09/02 01:35:03;;;;;;;2.97;0.95;;;16.60;97.70;;;;;;4977154;28;20078;-69
2022/09/02 01:37:28;;;;;;;2.40;1.00;;;16.60;97.60;;;;;;4977102;28;20039;-70
2022/09/02 01:39:56;;;;;;;1.95;1.00;;;16.60;97.70;;;;;;4977077;28;20441;-69
2022/09/02 01:42:21;;;;;;;1.95;1.05;;;16.60;97.60;;;;;;4976951;28;20444;-69
2022/09/02 01:44:47;;;;;;;2.42;1.40;;;16.50;97.60;;;;;;4977157;28;20043;-70
2022/09/02 01:47:16;;;;;;;2.45;0.80;;;16.50;97.70;;;;;;4979604;28;20429;-69
2022/09/02 01:49:42;;;;;;;1.90;1.10;;;16.50;97.60;;;;;;4980623;28;20062;-70
2022/09/02 01:52:08;;;;;;;4.70;1.13;;;16.60;97.70;;;;;;4980824;28;20426;-69
2022/09/02 01:54:34;;;;;;;4.97;1.40;;;16.60;97.60;;;;;;4980375;28;20054;-69
2022/09/02 01:57:00;;;;;;;3.03;1.10;;;16.60;97.50;;;;;;4980512;28;20038;-69
2022/09/02 01:59:26;;;;;;;2.17;1.27;;;16.70;97.60;;;;;;4980215;28;20332;-69
2022/09/02 02:01:52;;;;;;;3.47;1.15;;;16.60;97.50;;;;;;4980282;28;20074;-69
2022/09/02 02:04:17;;;;;;;2.75;0.90;;;16.60;97.40;;;;;;4980172;28;20053;-69
2022/09/02 02:06:47;;;;;;;2.25;0.90;;;16.60;97.50;;;;;;4995510;28;20121;-69
2022/09/02 02:09:13;;;;;;;1.60;1.05;;;16.50;97.50;;;;;;4980393;28;20046;-69
2022/09/02 02:11:39;;;;;;;2.65;1.20;;;16.60;97.50;;;;;;4980081;28;20053;-69
2022/09/02 02:14:05;;;;;;;3.63;1.17;;;16.50;97.50;;;;;;4980003;28;20047;-69
2022/09/02 02:16:31;;;;;;;1.98;1.17;;;16.50;97.60;;;;;;4994659;28;20451;-70
2022/09/02 02:18:57;;;;;;;1.05;0.85;;;16.40;97.50;;;;;;4980235;28;20035;-69
2022/09/02 02:21:23;;;;;;;3.10;1.02;;;16.30;97.60;;;;;;4979792;28;20449;-69
2022/09/02 02:23:49;;;;;;;7.43;1.30;;;16.40;97.60;;;;;;4979956;28;20051;-70
2022/09/02 02:26:15;;;;;;;2.50;0.90;;;16.40;97.50;;;;;;4979789;28;20050;-69
2022/09/02 02:28:41;;;;;;;2.83;1.17;;;16.40;97.60;;;;;;4979693;28;20039;-69
2022/09/02 02:31:08;;;;;;;2.30;1.25;;;16.40;97.70;;;;;;4979616;28;20050;-70
2022/09/02 02:33:34;;;;;;;3.63;1.20;;;16.40;97.60;;;;;;4979707;28;20031;-70
2022/09/02 02:36:00;;;;;;;2.08;1.00;;;16.40;97.50;;;;;;4979547;28;20058;-69
2022/09/02 02:38:26;;;;;;;3.08;1.25;;;16.40;97.60;;;;;;4979602;28;20046;-69
2022/09/02 02:40:56;;;;;;;2.00;0.95;;;16.40;97.50;;;;;;4979515;28;20035;-69
2022/09/02 02:43:23;;;;;;;2.25;0.82;;;16.50;97.50;;;;;;4979461;28;20035;-69
2022/09/02 02:45:49;;;;;;;3.70;1.27;;;16.30;97.50;;;;;;4979107;28;20045;-69
2022/09/02 02:48:15;;;;;;;2.95;1.10;;;16.30;97.40;;;;;;4979468;28;20329;-69
2022/09/02 02:50:41;;;;;;;3.33;1.08;;;16.20;97.60;;;;;;4994611;28;20053;-69
2022/09/02 02:53:07;;;;;;;4.95;0.90;;;16.20;97.60;;;;;;4979209;28;20097;-69
2022/09/02 02:55:33;;;;;;;1.85;0.90;;;16.20;97.70;;;;;;4979415;28;20054;-69
2022/09/02 02:58:00;;;;;;;1.98;0.90;;;16.30;97.50;;;;;;4978895;28;20315;-69
2022/09/02 03:00:28;;;;;;;2.08;0.80;;;16.20;97.60;;;;;;4978047;28;20046;-69
2022/09/02 03:02:59;;;;;;;1.65;0.90;;;16.30;97.60;;;;;;4979278;28;20089;-70
2022/09/02 03:05:25;;;;;;;3.55;1.00;;;16.10;97.50;;;;;;4979386;28;20046;-69
2022/09/02 03:07:52;;;;;;;3.08;0.80;;;16.10;97.70;;;;;;4979199;28;20105;-70
2022/09/02 03:10:18;;;;;;;3.40;0.85;;;16.10;97.70;;;;;;4994140;28;20061;-69
2022/09/02 03:12:47;;;;;;;2.17;0.90;;;16.10;97.60;;;;;;4978768;28;20337;-69
2022/09/02 03:15:16;;;;;;;2.33;0.95;;;16.10;97.70;;;;;;4977523;28;20046;-70
2022/09/02 03:17:48;;;;;;;2.65;0.85;;;16.10;97.60;;;;;;4978803;28;20101;-69
2022/09/02 03:20:16;;;;;;;2.22;1.10;;;16.00;97.70;;;;;;4978042;28;20122;-69
2022/09/02 03:22:46;;;;;;;1.45;0.90;;;16.00;97.70;;;;;;4979007;28;20097;-69
2022/09/02 03:25:15;;;;;;;3.83;1.00;;;15.90;97.70;;;;;;4978748;28;20134;-69
2022/09/02 03:27:44;;;;;;;2.70;1.40;;;15.90;97.70;;;;;;4978489;28;20043;-69
2022/09/02 03:30:15;;;;;;;1.88;0.85;;;15.80;97.70;;;;;;4978723;28;20047;-69
2022/09/02 03:32:40;;;;;;;4.43;1.20;;;15.80;97.70;;;;;;4978556;28;20121;-69
2022/09/02 03:35:09;;;;;;;1.83;1.00;;;15.90;97.90;;;;;;4978352;28;20134;-69
2022/09/02 03:37:36;;;;;;;1.50;0.85;;;15.80;97.70;;;;;;4978771;28;20050;-69
2022/09/02 03:40:08;;;;;;;4.50;1.23;;;15.90;97.70;;;;;;4978389;28;20105;-69
2022/09/02 03:42:34;;;;;;;1.75;0.93;;;15.80;97.60;;;;;;4979189;28;20042;-69
2022/09/02 03:44:59;;;;;;;1.63;0.85;;;15.80;97.70;;;;;;4977329;28;20373;-69
2022/09/02 03:47:27;;;;;;;1.85;1.15;;;15.80;97.80;;;;;;4978077;28;20093;-69
2022/09/02 03:49:54;;;;;;;3.95;0.85;;;15.80;97.70;;;;;;4978354;28;20389;-69
2022/09/02 03:52:19;;;;;;;1.90;1.00;;;15.70;97.80;;;;;;4978238;28;20066;-69
2022/09/02 03:54:45;;;;;;;2.15;1.10;;;15.70;97.80;;;;;;4978115;28;20397;-70
2022/09/02 03:57:11;;;;;;;1.02;0.90;;;15.80;97.80;;;;;;4978211;28;20046;-69
2022/09/02 03:59:36;;;;;;;1.17;0.90;;;15.80;97.80;;;;;;4978254;28;20039;-69
2022/09/02 04:02:02;;;;;;;3.65;1.20;;;15.70;97.80;;;;;;4978029;28;20038;-69
2022/09/02 04:04:29;;;;;;;2.05;1.05;;;15.70;97.80;;;;;;4978124;28;20458;-69
2022/09/02 04:06:55;;;;;;;3.47;1.00;;;15.70;97.70;;;;;;4977841;28;20046;-70
2022/09/02 04:09:21;;;;;;;2.08;1.27;;;15.70;97.70;;;;;;4977269;28;20077;-69
2022/09/02 04:11:47;;;;;;;1.95;1.40;;;15.70;97.80;;;;;;4978220;28;20074;-70
2022/09/02 04:14:13;;;;;;;4.43;1.13;;;15.70;97.70;;;;;;4977956;28;20429;-69
2022/09/02 04:16:38;;;;;;;1.60;1.00;;;15.70;97.80;;;;;;4977730;28;20039;-69
2022/09/02 04:19:04;;;;;;;2.78;1.20;;;15.60;97.70;;;;;;4977810;28;20039;-69
2022/09/02 04:21:35;;;;;;;1.88;1.17;;;15.60;97.70;;;;;;4977833;28;20042;-69
2022/09/02 04:24:01;;;;;;;2.45;1.13;;;15.60;97.70;;;;;;4977775;28;20425;-69
2022/09/02 04:26:27;;;;;;;3.05;1.20;;;15.60;97.70;;;;;;4977835;28;20081;-69
2022/09/02 04:28:53;;;;;;;2.47;1.10;;;15.60;97.80;;;;;;4977965;28;20095;-69
2022/09/02 04:31:20;;;;;;;1.73;1.20;;;15.60;97.80;;;;;;4992877;28;20039;-69
2022/09/02 04:33:46;;;;;;;2.92;1.10;;;15.70;97.80;;;;;;4977597;28;20108;-69
2022/09/02 04:36:14;;;;;;;2.25;0.93;;;15.70;97.70;;;;;;4977342;28;20058;-70
2022/09/02 04:38:39;;;;;;;2.50;1.20;;;15.60;97.80;;;;;;4976932;28;20046;-69
2022/09/02 04:41:11;;;;;;;1.83;1.10;;;15.70;97.80;;;;;;4977582;28;20088;-69
2022/09/02 04:43:37;;;;;;;1.95;1.50;;;15.60;97.90;;;;;;4977918;28;20455;-69
2022/09/02 04:46:06;;;;;;;3.90;1.50;;;15.50;97.90;;;;;;4977103;28;20070;-69
2022/09/02 04:48:32;;;;;;;2.55;1.52;;;15.60;97.90;;;;;;4977439;28;20085;-69
2022/09/02 04:51:04;;;;;;;2.55;1.20;;;15.60;97.90;;;;;;4977367;28;20118;-69
2022/09/02 04:53:30;;;;;;;2.15;1.00;;;15.60;97.90;;;;;;4977400;28;20426;-69
2022/09/02 04:55:56;;;;;;;3.33;1.38;;;15.40;97.90;;;;;;4976746;28;20093;-69
2022/09/02 04:58:21;;;;;;;2.88;1.42;;;15.40;98.00;;;;;;4977606;28;20043;-69
2022/09/02 05:00:47;;;;;;;2.35;1.70;;;15.30;97.90;;;;;;4977627;28;20035;-69
2022/09/02 05:03:13;;;;;;;4.38;1.30;;;15.40;97.90;;;;;;4977258;28;20046;-69
2022/09/02 05:05:39;;;;;;;3.60;1.10;;;15.40;97.90;;;;;;4977256;28;20497;-69
2022/09/02 05:08:05;;;;;;;1.30;0.90;;;15.50;98.00;;;;;;4976386;28;20055;-69
2022/09/02 05:10:31;;;;;;;3.15;1.40;;;15.40;98.00;;;;;;4976179;28;20448;-69
2022/09/02 05:12:58;;;;;;;3.90;1.40;;;15.30;98.30;;;;;;4977319;28;20129;-69
2022/09/02 05:15:25;;;;;;;3.03;1.50;;;15.30;98.00;;;;;;4976749;28;20387;-70
2022/09/02 05:17:51;;;;;;;4.05;1.67;;;15.30;98.10;;;;;;4977187;28;20043;-69
2022/09/02 05:20:18;;;;;;;4.68;1.38;;;15.40;98.10;;;;;;4977500;28;20101;-69
2022/09/02 05:22:45;;;;;;;4.70;1.70;;;15.50;98.00;;;;;;4980927;28;20050;-70
2022/09/02 05:25:11;;;;;;;1.95;1.20;;;15.60;98.00;;;;;;4981163;28;20066;-69
2022/09/02 05:27:37;;;;;;;2.47;1.45;;;15.60;98.10;;;;;;4981139;28;20054;-69
2022/09/02 05:30:04;;;;;;;3.47;1.35;;;15.60;97.90;;;;;;4980911;28;20125;-69
2022/09/02 05:32:30;;;;;;;2.90;1.20;;;15.60;98.00;;;;;;4980593;28;20425;-69
2022/09/02 05:34:56;;;;;;;2.28;1.35;;;15.60;98.00;;;;;;4980748;28;20145;-69
2022/09/02 05:37:23;;;;;;;2.35;1.60;;;15.60;98.00;;;;;;4980799;28;20038;-69
2022/09/02 05:39:49;;;;;;;2.10;1.45;;;15.70;98.00;;;;;;4996037;28;20480;-69
2022/09/02 05:42:15;;;;;;;2.78;1.42;;;15.70;98.00;;;;;;4980646;28;20110;-69
2022/09/02 05:44:43;;;;;;;1.30;1.02;;;15.70;98.00;;;;;;4980655;28;20078;-69
2022/09/02 05:47:10;;;;;;;2.13;1.40;;;15.60;97.90;;;;;;4980174;28;20470;-69
2022/09/02 05:49:36;;;;;;;3.83;1.80;;;15.70;98.00;;;;;;4980663;28;20074;-69
2022/09/02 05:52:03;;;;;;;2.40;1.58;;;15.80;98.00;;;;;;4995715;28;20070;-69
2022/09/02 05:54:31;;;;;;;3.13;1.45;;;15.90;98.00;;;;;;4980444;28;20413;-69
2022/09/02 05:56:59;;;;;;;4.35;1.38;;;15.90;98.00;;;;;;4980548;28;20050;-69
2022/09/02 05:59:27;;;;;;;4.47;1.60;;;16.00;97.90;;;;;;4980404;28;20085;-69
2022/09/02 06:01:53;;;;;;;3.20;1.20;;;15.80;98.10;;;;;;4980335;28;20121;-69
2022/09/02 06:04:21;;;;;;;3.40;1.38;;;15.90;98.10;;;;;;4980248;28;20035;-69
2022/09/02 06:06:47;;;;;;;6.47;1.50;;;16.00;97.90;;;;;;4980249;28;20072;-69
2022/09/02 06:09:15;;;;;;;1.90;1.35;;;15.90;97.90;;;;;;4980121;28;20437;-69
2022/09/02 06:11:48;;;;;;;2.83;1.13;;;16.00;98.20;;;;;;4980184;28;20122;-69
2022/09/02 06:14:16;;;;;;;4.75;1.80;;;16.20;98.30;;;;;;4980028;28;20057;-69
2022/09/02 06:16:42;;;;;;;1.95;1.35;;;16.30;97.90;;;;;;4979467;28;20074;-69
2022/09/02 06:19:09;;;;;;;6.95;1.65;;;16.30;97.90;;;;;;4980165;28;20039;-69
2022/09/02 06:21:36;;;;;;;2.53;1.40;;;16.30;97.80;;;;;;4978995;28;20382;-69
2022/09/02 06:24:08;;;;;;;2.97;1.30;;;16.50;98.00;;;;;;4979718;28;20042;-69
2022/09/02 06:26:35;;;;;;;2.70;1.20;;;16.60;97.90;;;;;;4980136;28;20042;-69
2022/09/02 06:29:01;;;;;;;2.35;1.17;;;16.70;97.90;;;;;;4978796;28;20086;-69
2022/09/02 06:31:27;;;;;;;2.60;1.30;;;16.80;97.90;;;;;;4978752;28;20088;-69
2022/09/02 06:33:55;;;;;;;5.13;1.63;;;16.90;98.00;;;;;;4978881;28;20097;-69
2022/09/02 06:36:22;;;;;;;2.10;1.27;;;17.00;97.90;;;;;;4979477;28;20054;-69
2022/09/02 06:38:51;;;;;;;1.85;0.98;;;17.00;97.90;;;;;;4979823;28;20071;-69
2022/09/02 06:41:22;;;;;;;6.47;1.70;;;17.00;97.90;;;;;;4979637;28;20074;-69
2022/09/02 06:43:48;;;;;;;1.73;1.42;;;17.00;97.80;;;;;;4979992;28;20057;-69
2022/09/02 06:46:20;;;;;;;2.50;1.50;;;17.10;97.90;;;;;;4978271;28;20050;-69
2022/09/02 06:48:48;;;;;;;3.35;1.40;;;17.00;97.90;;;;;;4979737;28;20380;-69
2022/09/02 06:51:24;;;;;;;2.58;1.40;;;17.00;98.10;;;;;;4978476;28;20050;-69
2022/09/02 06:53:50;;;;;;;4.72;1.35;;;17.20;98.00;;;;;;4978304;28;20178;-69
2022/09/02 06:56:17;;;;;;;2.40;1.35;;;17.30;98.00;;;;;;4979236;28;20126;-69
2022/09/02 06:58:44;;;;;;;5.45;1.50;;;17.40;97.90;;;;;;4979350;28;20428;-69
2022/09/02 07:01:35;;;;;;;2.60;1.40;;;17.20;98.00;;;;;;4978568;28;20432;-69
2022/09/02 07:06:50;;;;;;;1.85;1.23;;;17.40;97.80;;;;;;4979380;28;20054;-69
2022/09/02 07:09:19;;;;;;;5.22;1.40;;;17.40;97.80;;;;;;4979246;28;20047;-69
2022/09/02 07:11:46;;;;;;;2.95;1.15;;;17.50;97.70;;;;;;4979199;28;20345;-70
2022/09/02 07:14:13;;;;;;;1.50;1.00;;;17.50;98.00;;;;;;4979145;28;20047;-69
2022/09/02 07:16:44;;;;;;;2.75;1.33;;;17.60;98.10;;;;;;4978636;28;20117;-69
2022/09/02 07:19:10;;;;;;;3.65;1.20;;;17.80;97.80;;;;;;4979126;28;20046;-69
2022/09/02 07:21:37;;;;;;;3.90;1.65;;;17.70;97.80;;;;;;4994208;28;20046;-69
2022/09/02 07:24:02;;;;;;;3.58;1.30;;;17.90;97.80;;;;;;4978800;28;20421;-69
2022/09/02 07:26:28;;;;;;;7.55;1.75;;;17.90;97.70;;;;;;4978900;28;20046;-69
2022/09/02 07:28:55;;;;;;;3.95;1.52;;;18.00;97.40;;;;;;4978799;28;20030;-70
2022/09/02 07:31:22;;;;;;;1.48;1.23;;;17.90;97.40;;;;;;4978614;28;20047;-69
2022/09/02 07:33:48;;;;;;;3.33;1.70;;;17.90;97.60;;;;;;4978695;28;20042;-69
2022/09/02 07:36:14;;;;;;;3.25;1.20;;;18.10;97.70;;;;;;4978447;28;20058;-69
2022/09/02 07:38:41;;;;;;;3.83;1.40;;;18.10;97.70;;;;;;4978496;28;20043;-69
2022/09/02 07:41:09;;;;;;;2.22;1.30;;;18.20;97.50;;;;;;4978887;28;20031;-69
2022/09/02 07:43:36;;;;;;;3.22;1.30;;;18.20;97.30;;;;;;4978234;28;20034;-69
2022/09/02 07:46:03;;;;;;;2.65;1.10;;;18.20;97.30;;;;;;4993129;28;20086;-70
2022/09/02 07:48:30;;;;;;;3.28;1.23;;;18.30;97.40;;;;;;4978513;28;20043;-69
2022/09/02 07:50:57;;;;;;;2.50;1.27;;;18.40;97.50;;;;;;4978435;28;20046;-70
2022/09/02 07:53:23;;;;;;;3.40;1.15;;;18.50;97.60;;;;;;4978435;28;20049;-69
2022/09/02 07:55:49;;;;;;;6.07;1.33;;;18.70;97.50;;;;;;4978193;28;20334;-69
2022/09/02 07:58:18;;;;;;;4.63;1.17;;;18.90;97.30;;;;;;4978431;28;20031;-69
2022/09/02 08:00:44;;;;;;;4.20;1.45;;;18.80;97.10;;;;;;4978081;28;20093;-70
2022/09/02 08:03:11;;;;;;;4.82;1.50;;;18.90;96.90;;;;;;4978340;28;20094;-69
2022/09/02 08:05:38;;;;;;;2.33;1.60;;;18.80;97.00;;;;;;4978182;28;20043;-69
2022/09/02 08:08:04;;;;;;;3.47;1.70;;;18.80;97.10;;;;;;4993474;28;20342;-70
2022/09/02 08:10:30;;;;;;;3.00;1.30;;;18.90;96.90;;;;;;4977916;28;20489;-69
2022/09/02 08:12:59;;;;;;;2.78;1.58;;;19.00;96.90;;;;;;4993294;28;20319;-70
2022/09/02 08:15:27;;;;;;;3.33;1.48;;;19.20;96.90;;;;;;4977798;28;20129;-70
2022/09/02 08:17:54;;;;;;;3.80;1.30;;;19.30;97.00;;;;;;4977414;28;20049;-70
2022/09/02 08:20:21;;;;;;;3.35;1.70;;;19.40;97.00;;;;;;4978128;28;20046;-69
2022/09/02 08:22:47;;;;;;;3.13;1.90;;;19.50;96.90;;;;;;4977693;28;20509;-70
2022/09/02 08:25:13;;;;;;;4.07;1.88;;;19.50;97.10;;;;;;4977958;28;20121;-69
2022/09/02 08:27:40;;;;;;;4.80;1.85;;;19.70;96.80;;;;;;4977656;28;20030;-70
2022/09/02 08:30:09;;;;;;;4.13;1.95;;;19.90;96.80;;;;;;4977560;28;20042;-70
2022/09/02 08:32:35;;;;;;;3.55;1.77;;;20.00;96.70;;;;;;4976897;28;20050;-69
2022/09/02 08:35:03;;;;;;;3.30;1.80;;;20.10;96.60;;;;;;4977505;28;20097;-70
2022/09/02 08:37:30;;;;;;;5.45;2.05;;;20.10;96.50;;;;;;4992694;28;20043;-69
2022/09/02 08:39:56;;;;;;;5.35;1.60;;;20.10;96.60;;;;;;4977575;28;20054;-69
2022/09/02 08:42:30;;;;;;;4.30;1.70;;;20.30;96.90;;;;;;4977662;28;20035;-69
2022/09/02 08:45:05;;;;;;;4.32;1.65;;;20.50;96.50;;;;;;4977454;28;20101;-69
2022/09/02 08:47:34;;;;;;;3.60;1.67;;;20.70;96.80;;;;;;4976986;28;20421;-70
2022/09/02 08:50:04;;;;;;;3.30;1.52;;;20.90;96.70;;;;;;4977763;28;20078;-70
2022/09/02 08:52:41;;;;;;;8.43;1.40;;;20.90;96.40;;;;;;4977625;28;20046;-70
2022/09/02 08:55:18;;;;;;;3.97;1.35;;;21.00;96.60;;;;;;4977764;28;20078;-70
2022/09/02 08:57:45;;;;;;;2.88;1.30;;;21.20;96.50;;;;;;4981566;28;20043;-70
2022/09/02 09:00:13;;;;;;;3.17;1.20;;;21.40;96.50;;;;;;4981688;28;20078;-70
2022/09/02 09:03:05;;;;;;;5.60;1.10;;;21.50;96.30;;;;;;4981457;28;20093;-70
2022/09/02 09:05:45;;;;;;;5.03;1.20;;;21.50;96.20;;;;;;4981420;28;20042;-70
2022/09/02 09:08:20;;;;;;;4.53;1.50;;;21.50;96.10;;;;;;4981610;28;20043;-70
2022/09/02 09:11:11;;;;;;;2.53;1.02;;;21.70;95.90;;;;;;4981244;28;20126;-70
2022/09/02 09:13:48;;;;;;;5.03;1.00;;;21.90;96.10;;;;;;4981075;28;20046;-70
2022/09/02 09:16:37;;;;;;;3.70;1.75;;;22.10;96.00;;;;;;4980759;28;20116;-70
2022/09/02 09:19:09;;;;;;;1.73;0.90;;;22.20;95.70;;;;;;4980498;28;20038;-70
2022/09/02 09:21:35;;;;;;;2.88;1.00;;;22.30;95.60;;;;;;4979975;28;20126;-69
2022/09/02 09:24:20;;;;;;;2.20;1.05;;;22.30;95.80;;;;;;4981061;28;20047;-70
2022/09/02 09:26:46;;;;;;;4.55;1.00;;;22.60;95.50;;;;;;4980030;28;20053;-70
2022/09/02 09:29:12;;;;;;;3.85;0.73;;;22.50;95.00;;;;;;4980976;28;20047;-70
2022/09/02 09:31:39;;;;;;;1.67;0.90;;;22.60;95.10;;;;;;4981021;28;20101;-70
2022/09/02 09:34:08;;;;;;;1.17;0.70;;;22.50;94.90;;;;;;4980654;28;20045;-70
2022/09/02 09:36:39;;;;;;;2.65;0.95;;;22.70;94.90;;;;;;4980528;28;20449;-71
2022/09/02 09:39:26;;;;;;;3.05;1.15;;;22.70;94.80;;;;;;4980889;28;20042;-70
2022/09/02 09:41:58;;;;;;;5.45;1.00;;;22.70;94.60;;;;;;4980751;28;20072;-70
2022/09/02 09:44:44;;;;;;;5.75;0.90;;;22.70;94.70;;;;;;4981024;28;20085;-69
2022/09/02 09:47:13;;;;;;;;;;;22.80;94.60;;;;;;4980732;28;20322;-70
2022/09/02 09:49:39;;;;;;;2.28;1.00;;;22.80;94.70;;;;;;4980521;28;20351;-70
2022/09/02 09:52:05;;;;;;;2.40;1.15;;;22.90;94.80;;;;;;4980603;28;20429;-70
2022/09/02 09:54:31;;;;;;;6.05;1.25;;;23.00;94.40;;;;;;4980368;28;20402;-70
2022/09/02 09:57:18;;;;;;;2.15;0.80;;;23.20;94.40;;;;;;4980674;28;20080;-70
2022/09/02 09:59:48;;;;;;;11.88;1.30;;;23.30;94.70;;;;;;4980329;28;20039;-70
2022/09/02 10:02:22;;;;;;;2.22;0.90;;;23.40;94.40;;;;;;4995398;28;20082;-70
2022/09/02 10:04:48;;;;;;;5.68;1.02;;;23.30;94.30;;;;;;4980444;28;20057;-70
2022/09/02 10:07:34;;;;;;;5.30;1.08;;;23.50;94.20;;;;;;4977949;28;20102;-70
2022/09/02 10:10:23;;;;;;;4.22;1.08;;;23.70;94.30;;;;;;4980126;28;20109;-70
2022/09/02 10:12:51;;;;;;;3.88;1.27;;;23.90;94.20;;;;;;4980127;28;20078;-70
2022/09/02 10:15:53;;;;;;;2.70;0.90;;;24.20;94.20;;;;;;4979973;28;20089;-70
2022/09/02 10:18:38;;;;;;;4.07;0.80;;;24.40;94.00;;;;;;4979673;28;20050;-70
2022/09/02 10:21:19;;;;;;;4.20;1.00;;;24.40;94.00;;;;;;4979981;28;20046;-70
2022/09/02 10:24:30;;;;;;;3.17;0.90;;;24.60;94.00;;;;;;4980193;28;20043;-72
2022/09/02 10:26:58;;;;;;;2.15;0.70;;;24.60;93.90;;;;;;4979822;28;20112;-70
2022/09/02 10:29:33;;;;;;;4.03;0.70;;;24.90;93.90;;;;;;4979825;28;20185;-70
2022/09/02 10:32:11;;;;;;;2.85;0.80;;;25.20;93.90;;;;;;4979877;28;20047;-70
2022/09/02 10:35:05;;;;;;;3.53;1.00;;;25.50;94.00;;;;;;4994661;28;20043;-70
2022/09/02 10:38:07;;;;;;;3.42;0.75;;;25.50;93.40;;;;;;4979783;28;20126;-70
2022/09/02 10:40:50;;;;;;;1.95;0.90;;;25.80;93.80;;;;;;4979906;28;20035;-70
2022/09/02 10:43:37;;;;;;;7.22;1.00;;;25.70;93.80;;;;;;4979535;28;20101;-70
2022/09/02 10:46:07;;;;;;;3.17;1.10;;;25.70;93.30;;;;;;4979283;28;20375;-70
2022/09/02 10:48:50;;;;;;;4.55;0.70;;;25.80;93.20;;;;;;4979706;28;20047;-70
2022/09/02 10:51:36;;;;;;;3.63;0.90;;;25.80;93.80;;;;;;4979503;28;20125;-70
2022/09/02 10:54:08;;;;;;;3.53;0.80;;;26.00;93.20;;;;;;4979593;28;20039;-70
2022/09/02 10:56:50;;;;;;;6.32;0.77;;;26.00;93.30;;;;;;4994646;28;20182;-70
2022/09/02 10:59:21;;;;;;;1.52;0.80;;;25.90;93.10;;;;;;4979199;28;20089;-70
2022/09/02 11:02:05;;;;;;;2.88;0.77;;;25.90;93.00;;;;;;4979405;28;20045;-70
2022/09/02 11:04:48;;;;;;;4.30;1.00;;;26.30;93.40;;;;;;4994587;28;20118;-70
2022/09/02 11:07:22;;;;;;;5.50;1.00;;;26.50;92.90;;;;;;4979399;28;20057;-71
2022/09/02 11:09:59;;;;;;;3.70;1.10;;;26.70;93.00;;;;;;4978287;28;20330;-70
2022/09/02 11:12:49;;;;;;;1.40;0.80;;;26.60;92.50;;;;;;4978827;28;20054;-71
2022/09/02 11:15:26;;;;;;;2.47;0.60;;;26.70;92.90;;;;;;4978980;28;20361;-70
2022/09/02 11:18:12;;;;;;;3.97;0.70;;;26.80;92.70;;;;;;4978535;28;20043;-70
2022/09/02 11:20:45;;;;;;;2.03;0.90;;;26.90;92.80;;;;;;4979085;28;20333;-71
2022/09/02 11:23:46;;;;;;;3.60;0.80;;;27.10;92.60;;;;;;4979142;28;20118;-70
2022/09/02 11:26:16;;;;;;;3.75;1.00;;;27.10;92.50;;;;;;4978513;28;20084;-70
2022/09/02 11:29:03;;;;;;;3.00;0.80;;;27.00;92.30;;;;;;4978790;28;20126;-70
2022/09/02 11:31:39;;;;;;;3.15;0.68;;;26.90;92.40;;;;;;4978677;28;20447;-71
2022/09/02 11:34:35;;;;;;;1.70;0.88;;;27.20;92.60;;;;;;4978766;28;20042;-70
2022/09/02 11:37:09;;;;;;;2.50;0.90;;;27.60;92.40;;;;;;4978893;28;20366;-70
2022/09/02 11:39:46;;;;;;;3.70;0.90;;;27.40;92.40;;;;;;4978441;28;20045;-71
2022/09/02 11:42:39;;;;;;;1.90;0.98;;;27.60;92.50;;;;;;4978645;28;20035;-71
2022/09/02 11:45:23;;;;;;;4.00;1.42;;;27.80;92.00;;;;;;4978563;28;20045;-70
2022/09/02 11:48:11;;;;;;;6.18;1.00;;;27.70;91.90;;;;;;4977883;28;20039;-71
2022/09/02 11:50:44;;;;;;;3.13;0.95;;;28.00;92.30;;;;;;4978574;28;20035;-71
2022/09/02 11:53:34;;;;;;;5.22;0.80;;;28.20;92.20;;;;;;4993666;28;20031;-70
2022/09/02 11:56:19;;;;;;;5.22;3.30;;;28.40;91.90;;;;;;4978209;28;20042;-70
2022/09/02 11:58:51;;;;;;;6.05;1.30;;;28.70;92.20;;;;;;4978540;28;20118;-71
2022/09/02 12:01:37;;;;;;;3.45;1.02;;;28.80;91.40;;;;;;4978258;28;20039;-70
2022/09/02 12:04:19;;;;;;;6.40;3.58;;;28.70;91.90;;;;;;4978247;28;20451;-70
2022/09/02 12:07:06;;;;;;;6.43;3.70;;;28.70;91.70;;;;;;4977821;28;20247;-71
2022/09/02 12:09:46;;;;;;;7.70;1.40;;;28.90;92.00;;;;;;4977886;28;20445;-70
2022/09/02 12:12:40;;;;;;;1.25;0.70;;;28.90;91.60;;;;;;4978282;28;20054;-70
2022/09/02 12:15:10;;;;;;;3.28;0.88;;;29.30;91.40;;;;;;4977775;28;20046;-71
2022/09/02 12:17:37;;;;;;;5.15;2.58;;;29.50;91.20;;;;;;4977675;28;20113;-71
2022/09/02 12:20:07;;;;;;;4.47;2.10;;;29.20;90.90;;;;;;4977996;28;20047;-70
2022/09/02 12:22:39;;;;;;;4.60;0.82;;;28.80;90.80;;;;;;4977934;28;20085;-70
2022/09/02 12:25:25;;;;;;;4.85;1.42;;;29.10;90.90;;;;;;4976988;28;20499;-70
2022/09/02 12:28:23;;;;;;;2.03;0.93;;;29.30;90.80;;;;;;4977679;28;20070;-71
2022/09/02 12:31:00;;;;;;;2.92;0.65;;;29.80;90.80;;;;;;4977133;28;20038;-70
2022/09/02 12:33:31;;;;;;;5.65;1.02;;;29.70;91.00;;;;;;4977644;28;20043;-70
2022/09/02 12:35:58;;;;;;;6.22;0.98;;;29.80;90.80;;;;;;4977442;28;20066;-71
2022/09/02 12:38:40;;;;;;;1.80;0.90;;;29.90;90.60;;;;;;4977815;28;20062;-71
2022/09/02 12:41:05;;;;;;;3.85;0.85;;;29.90;90.70;;;;;;4977671;28;20034;-70
2022/09/02 12:43:43;;;;;;;4.22;0.80;;;29.70;90.90;;;;;;4977841;28;20065;-70
2022/09/02 12:46:35;;;;;;;3.55;1.30;;;30.10;90.70;;;;;;4977102;28;20069;-71
2022/09/02 12:49:32;;;;;;;1.60;0.52;;;30.50;90.40;;;;;;4977789;28;20101;-71
2022/09/02 12:52:01;;;;;;;6.22;0.60;;;30.40;90.50;;;;;;4977629;28;20074;-70
2022/09/02 12:54:47;;;;;;;3.13;0.60;;;30.40;90.20;;;;;;4977367;28;20046;-71
2022/09/02 12:57:17;;;;;;;6.82;3.78;;;30.30;90.50;;;;;;4992953;28;20071;-70
2022/09/02 12:59:46;;;;;;;3.88;0.80;;;30.00;90.10;;;;;;4976334;28;20456;-71
2022/09/02 13:02:32;;;;;;;2.05;1.20;;;30.40;90.10;;;;;;4977687;28;20039;-71
2022/09/02 13:05:06;;;;;;;1.65;0.90;;;30.20;90.40;;;;;;4977414;28;20043;-72
2022/09/02 13:07:47;;;;;;;2.80;1.08;;;30.40;90.30;;;;;;4992551;28;20054;-71
2022/09/02 13:10:31;;;;;;;4.95;3.05;;;30.60;90.40;;;;;;4977664;28;20047;-71